sensor_id;sensor_type;location;lat;lon;timestamp;temperature;humidity
15143;DHT22;7672;50.834;6.286;2024-01-07T00:01:34;5.50;99.90
15143;DHT22;7672;50.834;6.286;2024-01-07T00:04:01;5.50;99.90
15143;DHT22;7672;50.834;6.286;2024-01-07T00:06:28;5.40;99.90
15143;DHT22;7672;50.834;6.286;2024-01-07T00:08:55;5.50;99.90
15143;DHT22;7672;50.834;6.286;2024-01-07T00:11:23;5.50;99.90
15143;DHT22;7672;50.834;6.286;2024-01-07T00:13:50;6.00;99.90
15143;DHT22;7672;50.834;6.286;2024-01-07T00:16:18;5.50;99.90
15143;DHT22;7672;50.834;6.286;2024-01-07T00:18:45;5.40;99.90
15143;DHT22;7672;50.834;6.286;2024-01-07T00:21:13;6.20;99.90
15143;DHT22;7672;50.834;6.286;2024-01-07T00:23:44;5.40;99.90
15143;DHT22;7672;50.834;6.286;2024-01-07T00:26:13;5.50;99.90
15143;DHT22;7672;50.834;6.286;2024-01-07T00:28:44;5.70;99.90
15143;DHT22;7672;50.834;6.286;2024-01-07T00:31:12;6.00;99.90
15143;DHT22;7672;50.834;6.286;2024-01-07T00:33:39;5.10;99.90
15143;DHT22;7672;50.834;6.286;2024-01-07T00:36:07;5.40;99.90
15143;DHT22;7672;50.834;6.286;2024-01-07T00:38:36;5.50;99.90
15143;DHT22;7672;50.834;6.286;2024-01-07T00:41:03;5.50;99.90
15143;DHT22;7672;50.834;6.286;2024-01-07T00:43:32;5.50;99.90
15143;DHT22;7672;50.834;6.286;2024-01-07T00:46:11;5.40;99.90
15143;DHT22;7672;50.834;6.286;2024-01-07T00:48:40;5.70;99.90
15143;DHT22;7672;50.834;6.286;2024-01-07T00:51:18;5.80;99.90
15143;DHT22;7672;50.834;6.286;2024-01-07T00:53:48;5.20;99.90
15143;DHT22;7672;50.834;6.286;2024-01-07T00:56:25;5.90;99.90
15143;DHT22;7672;50.834;6.286;2024-01-07T00:58:53;6.00;99.90
15143;DHT22;7672;50.834;6.286;2024-01-07T01:01:20;5.80;99.90
15143;DHT22;7672;50.834;6.286;2024-01-07T01:03:50;5.30;99.90
15143;DHT22;7672;50.834;6.286;2024-01-07T01:06:18;5.20;99.90
15143;DHT22;7672;50.834;6.286;2024-01-07T01:08:45;5.20;99.90
15143;DHT22;7672;50.834;6.286;2024-01-07T01:11:13;6.10;99.90
15143;DHT22;7672;50.834;6.286;2024-01-07T01:13:40;5.20;99.90
15143;DHT22;7672;50.834;6.286;2024-01-07T01:16:07;5.30;99.90
15143;DHT22;7672;50.834;6.286;2024-01-07T01:18:34;5.20;99.90
15143;DHT22;7672;50.834;6.286;2024-01-07T01:21:02;5.70;99.90
15143;DHT22;7672;50.834;6.286;2024-01-07T01:23:29;4.70;99.90
15143;DHT22;7672;50.834;6.286;2024-01-07T01:25:56;4.80;99.90
15143;DHT22;7672;50.834;6.286;2024-01-07T01:28:23;5.60;99.90
15143;DHT22;7672;50.834;6.286;2024-01-07T01:30:50;5.20;99.90
15143;DHT22;7672;50.834;6.286;2024-01-07T01:33:19;5.40;99.90
15143;DHT22;7672;50.834;6.286;2024-01-07T01:35:46;6.00;99.90
15143;DHT22;7672;50.834;6.286;2024-01-07T01:38:16;5.10;99.90
15143;DHT22;7672;50.834;6.286;2024-01-07T01:40:44;5.40;99.90
15143;DHT22;7672;50.834;6.286;2024-01-07T01:43:28;5.00;99.90
15143;DHT22;7672;50.834;6.286;2024-01-07T01:45:56;5.20;99.90
15143;DHT22;7672;50.834;6.286;2024-01-07T01:48:24;5.70;99.90
15143;DHT22;7672;50.834;6.286;2024-01-07T01:50:55;5.70;99.90
15143;DHT22;7672;50.834;6.286;2024-01-07T01:53:26;5.40;99.90
15143;DHT22;7672;50.834;6.286;2024-01-07T01:55:55;5.10;99.90
15143;DHT22;7672;50.834;6.286;2024-01-07T01:58:50;5.10;99.90
15143;DHT22;7672;50.834;6.286;2024-01-07T02:01:23;5.50;99.90
15143;DHT22;7672;50.834;6.286;2024-01-07T02:03:51;5.60;99.90
15143;DHT22;7672;50.834;6.286;2024-01-07T02:06:21;5.20;99.90
15143;DHT22;7672;50.834;6.286;2024-01-07T02:08:49;5.80;99.90
15143;DHT22;7672;50.834;6.286;2024-01-07T02:11:21;5.40;99.90
15143;DHT22;7672;50.834;6.286;2024-01-07T02:13:50;5.90;99.90
15143;DHT22;7672;50.834;6.286;2024-01-07T02:16:17;5.80;99.90
15143;DHT22;7672;50.834;6.286;2024-01-07T02:19:09;5.90;99.90
15143;DHT22;7672;50.834;6.286;2024-01-07T02:21:36;4.80;99.90
15143;DHT22;7672;50.834;6.286;2024-01-07T02:24:04;5.80;99.90
15143;DHT22;7672;50.834;6.286;2024-01-07T02:26:34;5.40;99.90
15143;DHT22;7672;50.834;6.286;2024-01-07T02:29:02;5.70;99.90
15143;DHT22;7672;50.834;6.286;2024-01-07T02:31:30;5.30;99.90
15143;DHT22;7672;50.834;6.286;2024-01-07T02:33:57;5.50;99.90
15143;DHT22;7672;50.834;6.286;2024-01-07T02:36:25;5.80;99.90
15143;DHT22;7672;50.834;6.286;2024-01-07T02:38:52;5.20;99.90
15143;DHT22;7672;50.834;6.286;2024-01-07T02:41:19;5.40;99.90
15143;DHT22;7672;50.834;6.286;2024-01-07T02:43:48;5.70;99.90
15143;DHT22;7672;50.834;6.286;2024-01-07T02:46:15;5.70;99.90
15143;DHT22;7672;50.834;6.286;2024-01-07T02:48:42;5.20;99.90
15143;DHT22;7672;50.834;6.286;2024-01-07T02:51:09;5.80;99.90
15143;DHT22;7672;50.834;6.286;2024-01-07T02:53:38;5.60;99.90
15143;DHT22;7672;50.834;6.286;2024-01-07T02:56:05;5.40;99.90
15143;DHT22;7672;50.834;6.286;2024-01-07T02:58:32;5.30;99.90
15143;DHT22;7672;50.834;6.286;2024-01-07T03:01:00;5.20;99.90
15143;DHT22;7672;50.834;6.286;2024-01-07T03:03:27;4.60;99.90
15143;DHT22;7672;50.834;6.286;2024-01-07T03:05:54;5.60;99.90
15143;DHT22;7672;50.834;6.286;2024-01-07T03:08:22;5.70;99.90
15143;DHT22;7672;50.834;6.286;2024-01-07T03:10:50;5.20;99.90
15143;DHT22;7672;50.834;6.286;2024-01-07T03:13:18;5.70;99.90
15143;DHT22;7672;50.834;6.286;2024-01-07T03:15:45;5.70;99.90
15143;DHT22;7672;50.834;6.286;2024-01-07T03:18:12;5.80;99.90
15143;DHT22;7672;50.834;6.286;2024-01-07T03:20:40;5.20;99.90
15143;DHT22;7672;50.834;6.286;2024-01-07T03:23:07;5.30;99.90
15143;DHT22;7672;50.834;6.286;2024-01-07T03:25:34;5.50;99.90
15143;DHT22;7672;50.834;6.286;2024-01-07T03:28:02;5.30;99.90
15143;DHT22;7672;50.834;6.286;2024-01-07T03:30:29;5.70;99.90
15143;DHT22;7672;50.834;6.286;2024-01-07T03:32:56;5.80;99.90
15143;DHT22;7672;50.834;6.286;2024-01-07T03:35:23;5.70;99.90
15143;DHT22;7672;50.834;6.286;2024-01-07T03:37:51;5.90;99.90
15143;DHT22;7672;50.834;6.286;2024-01-07T03:40:18;5.60;99.90
15143;DHT22;7672;50.834;6.286;2024-01-07T03:42:45;5.20;99.90
15143;DHT22;7672;50.834;6.286;2024-01-07T03:45:13;5.10;99.90
15143;DHT22;7672;50.834;6.286;2024-01-07T03:47:40;5.50;99.90
15143;DHT22;7672;50.834;6.286;2024-01-07T03:50:07;4.90;99.90
15143;DHT22;7672;50.834;6.286;2024-01-07T03:52:35;5.20;99.90
15143;DHT22;7672;50.834;6.286;2024-01-07T03:55:02;5.10;99.90
15143;DHT22;7672;50.834;6.286;2024-01-07T03:57:30;5.10;99.90
15143;DHT22;7672;50.834;6.286;2024-01-07T04:00:00;5.10;99.90
15143;DHT22;7672;50.834;6.286;2024-01-07T04:02:34;5.00;99.90
15143;DHT22;7672;50.834;6.286;2024-01-07T04:05:01;5.10;99.90
15143;DHT22;7672;50.834;6.286;2024-01-07T04:07:28;5.10;99.90
15143;DHT22;7672;50.834;6.286;2024-01-07T04:09:54;5.10;99.90
15143;DHT22;7672;50.834;6.286;2024-01-07T04:12:21;5.10;99.90
15143;DHT22;7672;50.834;6.286;2024-01-07T04:14:48;5.00;99.90
15143;DHT22;7672;50.834;6.286;2024-01-07T04:17:15;5.00;99.90
15143;DHT22;7672;50.834;6.286;2024-01-07T04:19:42;5.00;99.90
15143;DHT22;7672;50.834;6.286;2024-01-07T04:22:09;5.00;99.90
15143;DHT22;7672;50.834;6.286;2024-01-07T04:24:36;5.00;99.90
15143;DHT22;7672;50.834;6.286;2024-01-07T04:27:03;5.00;99.90
15143;DHT22;7672;50.834;6.286;2024-01-07T04:29:30;5.00;99.90
15143;DHT22;7672;50.834;6.286;2024-01-07T04:31:57;5.00;99.90
15143;DHT22;7672;50.834;6.286;2024-01-07T04:34:24;5.00;99.90
15143;DHT22;7672;50.834;6.286;2024-01-07T04:36:51;5.00;99.90
15143;DHT22;7672;50.834;6.286;2024-01-07T04:39:18;5.00;99.90
15143;DHT22;7672;50.834;6.286;2024-01-07T04:41:45;5.00;99.90
15143;DHT22;7672;50.834;6.286;2024-01-07T04:44:12;5.00;99.90
15143;DHT22;7672;50.834;6.286;2024-01-07T04:46:39;5.00;99.90
15143;DHT22;7672;50.834;6.286;2024-01-07T04:49:06;5.00;99.90
15143;DHT22;7672;50.834;6.286;2024-01-07T04:51:34;5.00;99.90
15143;DHT22;7672;50.834;6.286;2024-01-07T04:54:00;5.00;99.90
15143;DHT22;7672;50.834;6.286;2024-01-07T04:56:27;5.00;99.90
15143;DHT22;7672;50.834;6.286;2024-01-07T04:58:54;5.00;99.90
15143;DHT22;7672;50.834;6.286;2024-01-07T05:01:21;5.00;99.90
15143;DHT22;7672;50.834;6.286;2024-01-07T05:03:48;5.00;99.90
15143;DHT22;7672;50.834;6.286;2024-01-07T05:06:15;5.00;99.90
15143;DHT22;7672;50.834;6.286;2024-01-07T05:08:43;5.00;99.90
15143;DHT22;7672;50.834;6.286;2024-01-07T05:11:10;5.00;99.90
15143;DHT22;7672;50.834;6.286;2024-01-07T05:13:38;5.00;99.90
15143;DHT22;7672;50.834;6.286;2024-01-07T05:16:05;5.00;99.90
15143;DHT22;7672;50.834;6.286;2024-01-07T05:18:32;5.00;99.90
15143;DHT22;7672;50.834;6.286;2024-01-07T05:20:59;5.00;99.90
15143;DHT22;7672;50.834;6.286;2024-01-07T05:23:26;5.00;99.90
15143;DHT22;7672;50.834;6.286;2024-01-07T05:25:53;5.00;99.90
15143;DHT22;7672;50.834;6.286;2024-01-07T05:28:20;5.00;99.90
15143;DHT22;7672;50.834;6.286;2024-01-07T05:30:49;5.00;99.90
15143;DHT22;7672;50.834;6.286;2024-01-07T05:33:16;5.00;99.90
15143;DHT22;7672;50.834;6.286;2024-01-07T05:35:43;4.90;99.90
15143;DHT22;7672;50.834;6.286;2024-01-07T05:38:10;4.90;99.90
15143;DHT22;7672;50.834;6.286;2024-01-07T05:40:37;4.90;99.90
15143;DHT22;7672;50.834;6.286;2024-01-07T05:43:04;4.90;99.90
15143;DHT22;7672;50.834;6.286;2024-01-07T05:45:31;4.90;99.90
15143;DHT22;7672;50.834;6.286;2024-01-07T05:47:58;4.90;99.90
15143;DHT22;7672;50.834;6.286;2024-01-07T05:50:25;4.90;99.90
15143;DHT22;7672;50.834;6.286;2024-01-07T05:52:52;4.90;99.90
15143;DHT22;7672;50.834;6.286;2024-01-07T05:55:19;4.80;99.90
15143;DHT22;7672;50.834;6.286;2024-01-07T05:57:46;4.80;99.90
15143;DHT22;7672;50.834;6.286;2024-01-07T06:00:13;4.80;99.90
15143;DHT22;7672;50.834;6.286;2024-01-07T06:02:40;4.80;99.90
15143;DHT22;7672;50.834;6.286;2024-01-07T06:05:07;4.80;99.90
15143;DHT22;7672;50.834;6.286;2024-01-07T06:07:35;4.80;99.90
15143;DHT22;7672;50.834;6.286;2024-01-07T06:10:02;4.80;99.90
15143;DHT22;7672;50.834;6.286;2024-01-07T06:12:29;4.80;99.90
15143;DHT22;7672;50.834;6.286;2024-01-07T06:14:56;4.80;99.90
15143;DHT22;7672;50.834;6.286;2024-01-07T06:17:23;4.80;99.90
15143;DHT22;7672;50.834;6.286;2024-01-07T06:19:50;4.80;99.90
15143;DHT22;7672;50.834;6.286;2024-01-07T06:22:17;4.80;99.90
15143;DHT22;7672;50.834;6.286;2024-01-07T06:24:44;4.80;99.90
15143;DHT22;7672;50.834;6.286;2024-01-07T06:27:11;4.80;99.90
15143;DHT22;7672;50.834;6.286;2024-01-07T06:29:38;4.80;99.90
15143;DHT22;7672;50.834;6.286;2024-01-07T06:32:05;4.70;99.90
15143;DHT22;7672;50.834;6.286;2024-01-07T06:34:32;4.70;99.90
15143;DHT22;7672;50.834;6.286;2024-01-07T06:37:00;4.70;99.90
15143;DHT22;7672;50.834;6.286;2024-01-07T06:39:26;4.70;99.90
15143;DHT22;7672;50.834;6.286;2024-01-07T06:41:54;4.70;99.90
15143;DHT22;7672;50.834;6.286;2024-01-07T06:44:21;4.70;99.90
15143;DHT22;7672;50.834;6.286;2024-01-07T06:46:48;4.70;99.90
15143;DHT22;7672;50.834;6.286;2024-01-07T06:49:15;4.70;99.90
15143;DHT22;7672;50.834;6.286;2024-01-07T06:51:42;4.60;99.90
15143;DHT22;7672;50.834;6.286;2024-01-07T06:54:09;4.60;99.90
15143;DHT22;7672;50.834;6.286;2024-01-07T06:56:40;4.60;99.90
15143;DHT22;7672;50.834;6.286;2024-01-07T06:59:07;4.60;99.90
15143;DHT22;7672;50.834;6.286;2024-01-07T07:01:40;4.60;99.90
15143;DHT22;7672;50.834;6.286;2024-01-07T07:04:30;4.60;99.90
15143;DHT22;7672;50.834;6.286;2024-01-07T07:09:52;4.50;99.90
15143;DHT22;7672;50.834;6.286;2024-01-07T07:12:19;4.50;99.90
15143;DHT22;7672;50.834;6.286;2024-01-07T07:14:48;4.50;99.90
15143;DHT22;7672;50.834;6.286;2024-01-07T07:17:15;4.40;99.90
15143;DHT22;7672;50.834;6.286;2024-01-07T07:19:42;4.40;99.90
15143;DHT22;7672;50.834;6.286;2024-01-07T07:22:12;4.40;99.90
15143;DHT22;7672;50.834;6.286;2024-01-07T07:24:40;4.40;99.90
15143;DHT22;7672;50.834;6.286;2024-01-07T07:27:08;4.40;99.90
15143;DHT22;7672;50.834;6.286;2024-01-07T07:29:35;4.50;99.90
15143;DHT22;7672;50.834;6.286;2024-01-07T07:32:02;4.40;99.90
15143;DHT22;7672;50.834;6.286;2024-01-07T07:34:29;4.40;99.90
15143;DHT22;7672;50.834;6.286;2024-01-07T07:36:56;4.40;99.90
15143;DHT22;7672;50.834;6.286;2024-01-07T07:39:23;4.40;99.90
15143;DHT22;7672;50.834;6.286;2024-01-07T07:41:50;4.40;99.90
15143;DHT22;7672;50.834;6.286;2024-01-07T07:44:17;4.40;99.90
15143;DHT22;7672;50.834;6.286;2024-01-07T07:46:44;4.40;99.90
15143;DHT22;7672;50.834;6.286;2024-01-07T07:49:11;4.40;99.90
15143;DHT22;7672;50.834;6.286;2024-01-07T07:51:39;4.40;99.90
15143;DHT22;7672;50.834;6.286;2024-01-07T07:54:08;4.00;99.90
15143;DHT22;7672;50.834;6.286;2024-01-07T07:56:35;4.60;99.90
15143;DHT22;7672;50.834;6.286;2024-01-07T07:59:03;4.10;99.90
15143;DHT22;7672;50.834;6.286;2024-01-07T08:01:32;4.10;99.90
15143;DHT22;7672;50.834;6.286;2024-01-07T08:04:04;4.70;99.90
15143;DHT22;7672;50.834;6.286;2024-01-07T08:06:35;4.50;99.90
15143;DHT22;7672;50.834;6.286;2024-01-07T08:09:08;4.50;99.90
15143;DHT22;7672;50.834;6.286;2024-01-07T08:11:35;4.30;99.90
15143;DHT22;7672;50.834;6.286;2024-01-07T08:14:04;4.80;99.90
15143;DHT22;7672;50.834;6.286;2024-01-07T08:16:35;4.10;99.90
15143;DHT22;7672;50.834;6.286;2024-01-07T08:19:02;4.40;99.90
15143;DHT22;7672;50.834;6.286;2024-01-07T08:21:38;4.10;99.90
15143;DHT22;7672;50.834;6.286;2024-01-07T08:24:12;4.60;99.90
15143;DHT22;7672;50.834;6.286;2024-01-07T08:26:40;4.20;99.90
15143;DHT22;7672;50.834;6.286;2024-01-07T08:29:07;4.50;99.90
15143;DHT22;7672;50.834;6.286;2024-01-07T08:31:35;4.40;99.90
15143;DHT22;7672;50.834;6.286;2024-01-07T08:34:02;4.10;99.90
15143;DHT22;7672;50.834;6.286;2024-01-07T08:36:30;4.50;99.90
15143;DHT22;7672;50.834;6.286;2024-01-07T08:38:59;4.10;99.90
15143;DHT22;7672;50.834;6.286;2024-01-07T08:41:27;4.10;99.90
15143;DHT22;7672;50.834;6.286;2024-01-07T08:43:53;4.10;99.90
15143;DHT22;7672;50.834;6.286;2024-01-07T08:46:21;4.00;99.90
15143;DHT22;7672;50.834;6.286;2024-01-07T08:48:48;4.00;99.90
15143;DHT22;7672;50.834;6.286;2024-01-07T08:51:15;4.00;99.90
15143;DHT22;7672;50.834;6.286;2024-01-07T08:53:42;4.00;99.90
15143;DHT22;7672;50.834;6.286;2024-01-07T08:56:09;4.00;99.90
15143;DHT22;7672;50.834;6.286;2024-01-07T08:58:35;4.00;99.90
15143;DHT22;7672;50.834;6.286;2024-01-07T09:01:07;4.00;99.90
15143;DHT22;7672;50.834;6.286;2024-01-07T09:03:43;3.60;99.90
15143;DHT22;7672;50.834;6.286;2024-01-07T09:06:11;4.00;99.90
15143;DHT22;7672;50.834;6.286;2024-01-07T09:08:38;4.00;99.90
15143;DHT22;7672;50.834;6.286;2024-01-07T09:11:05;4.00;99.90
15143;DHT22;7672;50.834;6.286;2024-01-07T09:13:33;4.00;99.90
15143;DHT22;7672;50.834;6.286;2024-01-07T09:16:00;4.00;99.90
15143;DHT22;7672;50.834;6.286;2024-01-07T09:18:27;4.20;99.90
15143;DHT22;7672;50.834;6.286;2024-01-07T09:20:55;4.00;99.90
15143;DHT22;7672;50.834;6.286;2024-01-07T09:23:22;4.00;99.90
15143;DHT22;7672;50.834;6.286;2024-01-07T09:25:49;4.00;99.90
15143;DHT22;7672;50.834;6.286;2024-01-07T09:28:15;4.00;99.90
15143;DHT22;7672;50.834;6.286;2024-01-07T09:30:43;4.00;99.90
15143;DHT22;7672;50.834;6.286;2024-01-07T09:33:10;4.00;99.90
15143;DHT22;7672;50.834;6.286;2024-01-07T09:35:37;4.00;99.90
15143;DHT22;7672;50.834;6.286;2024-01-07T09:38:04;4.00;99.90
15143;DHT22;7672;50.834;6.286;2024-01-07T09:40:31;3.90;99.90
15143;DHT22;7672;50.834;6.286;2024-01-07T09:42:58;3.90;99.90
15143;DHT22;7672;50.834;6.286;2024-01-07T09:45:26;3.90;99.90
15143;DHT22;7672;50.834;6.286;2024-01-07T09:47:55;3.90;99.90
15143;DHT22;7672;50.834;6.286;2024-01-07T09:50:22;3.80;99.90
15143;DHT22;7672;50.834;6.286;2024-01-07T09:52:50;3.80;99.90
15143;DHT22;7672;50.834;6.286;2024-01-07T09:55:26;3.80;99.90
15143;DHT22;7672;50.834;6.286;2024-01-07T09:57:56;3.80;99.90
15143;DHT22;7672;50.834;6.286;2024-01-07T10:00:26;3.80;99.90
15143;DHT22;7672;50.834;6.286;2024-01-07T10:02:53;3.70;99.90
15143;DHT22;7672;50.834;6.286;2024-01-07T10:05:20;3.70;99.90
15143;DHT22;7672;50.834;6.286;2024-01-07T10:07:48;3.70;99.90
15143;DHT22;7672;50.834;6.286;2024-01-07T10:10:16;3.70;99.90
15143;DHT22;7672;50.834;6.286;2024-01-07T10:12:44;3.60;99.90
15143;DHT22;7672;50.834;6.286;2024-01-07T10:15:13;3.70;99.90
15143;DHT22;7672;50.834;6.286;2024-01-07T10:17:45;3.60;99.90
15143;DHT22;7672;50.834;6.286;2024-01-07T10:20:12;3.60;99.90
15143;DHT22;7672;50.834;6.286;2024-01-07T10:22:40;3.70;99.90
15143;DHT22;7672;50.834;6.286;2024-01-07T10:25:07;3.60;99.90
15143;DHT22;7672;50.834;6.286;2024-01-07T10:27:35;3.70;99.90
15143;DHT22;7672;50.834;6.286;2024-01-07T10:30:04;3.70;99.90
15143;DHT22;7672;50.834;6.286;2024-01-07T10:32:31;3.70;99.90
15143;DHT22;7672;50.834;6.286;2024-01-07T10:35:03;3.60;99.90
15143;DHT22;7672;50.834;6.286;2024-01-07T10:37:32;3.70;99.90
15143;DHT22;7672;50.834;6.286;2024-01-07T10:39:59;3.70;99.90
15143;DHT22;7672;50.834;6.286;2024-01-07T10:42:32;3.70;99.90
15143;DHT22;7672;50.834;6.286;2024-01-07T10:45:00;3.70;99.90
15143;DHT22;7672;50.834;6.286;2024-01-07T10:47:31;3.60;99.90
15143;DHT22;7672;50.834;6.286;2024-01-07T10:50:02;3.70;99.90
15143;DHT22;7672;50.834;6.286;2024-01-07T10:52:32;3.70;99.90
15143;DHT22;7672;50.834;6.286;2024-01-07T10:55:08;3.70;99.90
15143;DHT22;7672;50.834;6.286;2024-01-07T10:57:46;3.70;99.90
15143;DHT22;7672;50.834;6.286;2024-01-07T11:00:28;3.70;99.90
15143;DHT22;7672;50.834;6.286;2024-01-07T11:06:03;3.70;99.90
15143;DHT22;7672;50.834;6.286;2024-01-07T11:11:39;3.70;99.90
15143;DHT22;7672;50.834;6.286;2024-01-07T11:14:38;3.60;99.90
15143;DHT22;7672;50.834;6.286;2024-01-07T11:17:11;3.70;99.90
15143;DHT22;7672;50.834;6.286;2024-01-07T11:19:50;3.70;99.90
15143;DHT22;7672;50.834;6.286;2024-01-07T11:22:27;3.60;99.90
15143;DHT22;7672;50.834;6.286;2024-01-07T11:25:01;3.60;99.90
15143;DHT22;7672;50.834;6.286;2024-01-07T11:27:30;3.60;99.90
15143;DHT22;7672;50.834;6.286;2024-01-07T11:30:08;3.60;99.90
15143;DHT22;7672;50.834;6.286;2024-01-07T11:32:45;3.60;99.90
15143;DHT22;7672;50.834;6.286;2024-01-07T11:35:40;3.60;99.90
15143;DHT22;7672;50.834;6.286;2024-01-07T11:38:08;3.60;99.90
15143;DHT22;7672;50.834;6.286;2024-01-07T11:40:36;3.60;99.90
15143;DHT22;7672;50.834;6.286;2024-01-07T11:43:03;3.70;99.90
15143;DHT22;7672;50.834;6.286;2024-01-07T11:45:31;3.50;99.90
15143;DHT22;7672;50.834;6.286;2024-01-07T11:47:58;3.50;99.90
15143;DHT22;7672;50.834;6.286;2024-01-07T11:50:25;3.50;99.90
15143;DHT22;7672;50.834;6.286;2024-01-07T11:52:54;3.50;99.90
15143;DHT22;7672;50.834;6.286;2024-01-07T11:55:22;3.50;99.90
15143;DHT22;7672;50.834;6.286;2024-01-07T11:57:49;3.50;99.90
15143;DHT22;7672;50.834;6.286;2024-01-07T12:00:16;3.50;99.90
15143;DHT22;7672;50.834;6.286;2024-01-07T12:02:45;3.50;99.90
15143;DHT22;7672;50.834;6.286;2024-01-07T12:05:12;3.50;99.90
15143;DHT22;7672;50.834;6.286;2024-01-07T12:07:42;3.50;99.90
15143;DHT22;7672;50.834;6.286;2024-01-07T12:10:09;3.60;99.90
15143;DHT22;7672;50.834;6.286;2024-01-07T12:12:42;3.60;99.90
15143;DHT22;7672;50.834;6.286;2024-01-07T12:15:10;3.60;99.90
15143;DHT22;7672;50.834;6.286;2024-01-07T12:17:41;3.60;99.90
15143;DHT22;7672;50.834;6.286;2024-01-07T12:20:09;3.50;99.90
15143;DHT22;7672;50.834;6.286;2024-01-07T12:22:39;3.60;99.90
15143;DHT22;7672;50.834;6.286;2024-01-07T12:25:07;3.60;99.90
15143;DHT22;7672;50.834;6.286;2024-01-07T12:27:34;3.60;99.90
15143;DHT22;7672;50.834;6.286;2024-01-07T12:30:07;3.60;99.90
15143;DHT22;7672;50.834;6.286;2024-01-07T12:32:35;3.60;99.90
15143;DHT22;7672;50.834;6.286;2024-01-07T12:35:02;3.60;99.90
15143;DHT22;7672;50.834;6.286;2024-01-07T12:37:30;3.60;99.90
15143;DHT22;7672;50.834;6.286;2024-01-07T12:39:57;3.60;99.90
15143;DHT22;7672;50.834;6.286;2024-01-07T12:42:24;3.60;99.90
15143;DHT22;7672;50.834;6.286;2024-01-07T12:44:51;3.60;99.90
15143;DHT22;7672;50.834;6.286;2024-01-07T12:47:18;3.60;99.90
15143;DHT22;7672;50.834;6.286;2024-01-07T12:49:45;3.60;99.90
15143;DHT22;7672;50.834;6.286;2024-01-07T12:52:12;3.50;99.90
15143;DHT22;7672;50.834;6.286;2024-01-07T12:54:39;3.60;99.90
15143;DHT22;7672;50.834;6.286;2024-01-07T12:57:06;3.50;99.90
15143;DHT22;7672;50.834;6.286;2024-01-07T12:59:34;3.50;99.90
15143;DHT22;7672;50.834;6.286;2024-01-07T13:02:01;3.50;99.90
15143;DHT22;7672;50.834;6.286;2024-01-07T13:04:28;3.50;99.90
15143;DHT22;7672;50.834;6.286;2024-01-07T13:06:55;3.50;99.90
15143;DHT22;7672;50.834;6.286;2024-01-07T13:09:24;3.50;99.90
15143;DHT22;7672;50.834;6.286;2024-01-07T13:11:51;3.40;99.90
15143;DHT22;7672;50.834;6.286;2024-01-07T13:14:18;3.40;99.90
15143;DHT22;7672;50.834;6.286;2024-01-07T13:16:45;3.40;99.90
15143;DHT22;7672;50.834;6.286;2024-01-07T13:19:12;3.40;99.90
15143;DHT22;7672;50.834;6.286;2024-01-07T13:21:39;3.40;99.90
15143;DHT22;7672;50.834;6.286;2024-01-07T13:24:08;3.40;99.90
15143;DHT22;7672;50.834;6.286;2024-01-07T13:26:35;3.40;99.90
15143;DHT22;7672;50.834;6.286;2024-01-07T13:29:06;3.30;99.90
15143;DHT22;7672;50.834;6.286;2024-01-07T13:31:33;3.30;99.90
15143;DHT22;7672;50.834;6.286;2024-01-07T13:34:26;3.30;99.90
15143;DHT22;7672;50.834;6.286;2024-01-07T13:36:57;3.20;99.90
15143;DHT22;7672;50.834;6.286;2024-01-07T13:39:26;3.20;99.90
15143;DHT22;7672;50.834;6.286;2024-01-07T13:42:02;3.40;99.90
15143;DHT22;7672;50.834;6.286;2024-01-07T13:44:36;3.20;99.90
15143;DHT22;7672;50.834;6.286;2024-01-07T13:47:42;3.20;99.90
15143;DHT22;7672;50.834;6.286;2024-01-07T13:59:23;3.00;99.90
15143;DHT22;7672;50.834;6.286;2024-01-07T14:02:23;3.10;99.90
15143;DHT22;7672;50.834;6.286;2024-01-07T14:05:03;3.20;99.90
15143;DHT22;7672;50.834;6.286;2024-01-07T14:07:44;2.90;99.90
15143;DHT22;7672;50.834;6.286;2024-01-07T14:10:41;2.90;99.90
15143;DHT22;7672;50.834;6.286;2024-01-07T14:13:08;2.40;99.90
15143;DHT22;7672;50.834;6.286;2024-01-07T14:15:46;2.80;99.90
15143;DHT22;7672;50.834;6.286;2024-01-07T14:18:59;2.80;99.90
15143;DHT22;7672;50.834;6.286;2024-01-07T14:25:05;2.80;99.90
15143;DHT22;7672;50.834;6.286;2024-01-07T14:27:40;2.80;99.90
15143;DHT22;7672;50.834;6.286;2024-01-07T14:30:30;2.80;99.90
15143;DHT22;7672;50.834;6.286;2024-01-07T14:33:22;2.80;99.90
15143;DHT22;7672;50.834;6.286;2024-01-07T14:36:03;2.80;99.90
15143;DHT22;7672;50.834;6.286;2024-01-07T14:38:50;2.80;99.90
15143;DHT22;7672;50.834;6.286;2024-01-07T14:42:26;2.70;99.90
15143;DHT22;7672;50.834;6.286;2024-01-07T14:46:08;3.00;99.90
15143;DHT22;7672;50.834;6.286;2024-01-07T14:49:06;2.90;99.90
15143;DHT22;7672;50.834;6.286;2024-01-07T14:56:57;2.20;99.90
15143;DHT22;7672;50.834;6.286;2024-01-07T15:01:06;2.50;99.90
15143;DHT22;7672;50.834;6.286;2024-01-07T15:04:27;2.40;99.90
15143;DHT22;7672;50.834;6.286;2024-01-07T15:07:09;2.30;99.90
15143;DHT22;7672;50.834;6.286;2024-01-07T15:09:39;2.20;99.90
15143;DHT22;7672;50.834;6.286;2024-01-07T15:12:11;2.80;99.90
15143;DHT22;7672;50.834;6.286;2024-01-07T15:15:24;2.20;99.90
15143;DHT22;7672;50.834;6.286;2024-01-07T15:18:20;2.00;99.90
15143;DHT22;7672;50.834;6.286;2024-01-07T15:20:47;2.30;99.90
15143;DHT22;7672;50.834;6.286;2024-01-07T15:23:14;2.40;99.90
15143;DHT22;7672;50.834;6.286;2024-01-07T15:25:41;2.10;99.90
15143;DHT22;7672;50.834;6.286;2024-01-07T15:28:08;2.10;99.90
15143;DHT22;7672;50.834;6.286;2024-01-07T15:30:35;2.10;99.90
15143;DHT22;7672;50.834;6.286;2024-01-07T15:33:03;2.10;99.90
15143;DHT22;7672;50.834;6.286;2024-01-07T15:35:30;2.10;99.90
15143;DHT22;7672;50.834;6.286;2024-01-07T15:37:57;2.10;99.90
15143;DHT22;7672;50.834;6.286;2024-01-07T15:40:24;2.00;99.90
15143;DHT22;7672;50.834;6.286;2024-01-07T15:42:51;2.00;99.90
15143;DHT22;7672;50.834;6.286;2024-01-07T15:45:18;2.00;99.90
15143;DHT22;7672;50.834;6.286;2024-01-07T15:47:45;2.00;99.90
15143;DHT22;7672;50.834;6.286;2024-01-07T15:50:13;2.00;99.90
15143;DHT22;7672;50.834;6.286;2024-01-07T15:52:41;2.00;99.90
15143;DHT22;7672;50.834;6.286;2024-01-07T15:55:13;1.90;99.90
15143;DHT22;7672;50.834;6.286;2024-01-07T15:57:44;1.90;99.90
15143;DHT22;7672;50.834;6.286;2024-01-07T16:00:14;1.90;99.90
15143;DHT22;7672;50.834;6.286;2024-01-07T16:02:41;1.90;99.90
15143;DHT22;7672;50.834;6.286;2024-01-07T16:05:07;1.90;99.90
15143;DHT22;7672;50.834;6.286;2024-01-07T16:07:35;1.90;99.90
15143;DHT22;7672;50.834;6.286;2024-01-07T16:10:01;1.90;99.90
15143;DHT22;7672;50.834;6.286;2024-01-07T16:12:29;1.90;99.90
15143;DHT22;7672;50.834;6.286;2024-01-07T16:14:58;1.80;99.90
15143;DHT22;7672;50.834;6.286;2024-01-07T16:17:25;1.80;99.90
15143;DHT22;7672;50.834;6.286;2024-01-07T16:19:52;1.80;99.90
15143;DHT22;7672;50.834;6.286;2024-01-07T16:22:19;1.80;99.90
15143;DHT22;7672;50.834;6.286;2024-01-07T16:24:46;1.70;99.90
15143;DHT22;7672;50.834;6.286;2024-01-07T16:27:13;1.70;99.90
15143;DHT22;7672;50.834;6.286;2024-01-07T16:29:41;1.70;99.90
15143;DHT22;7672;50.834;6.286;2024-01-07T16:32:13;1.70;99.90
15143;DHT22;7672;50.834;6.286;2024-01-07T16:34:40;1.70;99.90
15143;DHT22;7672;50.834;6.286;2024-01-07T16:37:07;1.70;99.90
15143;DHT22;7672;50.834;6.286;2024-01-07T16:39:34;1.70;99.90
15143;DHT22;7672;50.834;6.286;2024-01-07T16:42:01;1.60;99.90
15143;DHT22;7672;50.834;6.286;2024-01-07T16:44:29;1.70;99.90
15143;DHT22;7672;50.834;6.286;2024-01-07T16:46:56;1.70;99.90
15143;DHT22;7672;50.834;6.286;2024-01-07T16:49:23;1.70;99.90